Time;durP1;ratioP1;P1;durP2;ratioP2;P2;SDS_P1;SDS_P2;PMS_P1;PMS_P2;Temp;Humidity;BMP_temperature;BMP_pressure;BME280_temperature;BME280_humidity;BME280_pressure;Samples;Min_cycle;Max_cycle;Signal;HPM_P1;HPM_P2
2022/09/13 00:01:16;;;;;;;10.10;4.82;;;;;;;11.01;100.00;99559.28;5112957;28;20054;-75
2022/09/13 00:03:43;;;;;;;11.13;5.20;;;;;;;11.10;100.00;99567.78;5112722;28;20123;-75
2022/09/13 00:06:13;;;;;;;11.65;7.43;;;;;;;11.11;100.00;99561.41;5115389;28;20130;-75
2022/09/13 00:08:42;;;;;;;13.02;7.72;;;;;;;11.11;100.00;99561.41;5116732;28;20047;-75
2022/09/13 00:11:15;;;;;;;12.55;6.32;;;;;;;11.07;100.00;99557.16;5116581;28;20050;-75
2022/09/13 00:13:43;;;;;;;11.20;6.10;;;;;;;11.00;100.00;99552.16;5116302;28;20054;-75
2022/09/13 00:16:12;;;;;;;10.68;5.90;;;;;;;10.95;100.00;99553.38;5116360;28;20094;-75
2022/09/13 00:18:40;;;;;;;13.23;5.45;;;;;;;10.94;100.00;99557.94;5116637;28;20040;-75
2022/09/13 00:21:09;;;;;;;9.75;5.43;;;;;;;10.99;100.00;99552.22;5116589;28;20044;-75
2022/09/13 00:23:37;;;;;;;11.00;5.57;;;;;;;10.96;100.00;99549.72;5116332;28;20134;-75
2022/09/13 00:26:08;;;;;;;11.95;5.50;;;;;;;10.92;100.00;99551.75;5116577;28;20043;-75
2022/09/13 00:28:35;;;;;;;9.73;5.53;;;;;;;10.92;100.00;99549.06;5117618;28;20051;-74
2022/09/13 00:31:04;;;;;;;11.35;5.68;;;;;;;10.90;100.00;99544.69;5116175;28;20055;-75
2022/09/13 00:33:32;;;;;;;11.15;5.70;;;;;;;10.99;100.00;99554.94;5116286;28;20051;-76
2022/09/13 00:36:04;;;;;;;10.80;5.28;;;;;;;10.93;100.00;99552.63;5116215;28;20040;-75
2022/09/13 00:38:31;;;;;;;13.05;5.40;;;;;;;10.93;100.00;99550.78;5118086;27;20044;-75
2022/09/13 00:40:59;;;;;;;10.68;5.25;;;;;;;10.96;100.00;99545.19;5116254;28;20069;-75
2022/09/13 00:43:46;;;;;;;10.60;5.13;;;;;;;10.97;100.00;99543.34;5115768;28;20378;-75
2022/09/13 00:46:17;;;;;;;12.43;5.80;;;;;;;10.99;100.00;99544.13;5116300;27;20511;-75
2022/09/13 00:48:46;;;;;;;10.50;5.38;;;;;;;11.03;100.00;99545.69;5116983;27;20047;-75
2022/09/13 00:51:14;;;;;;;9.73;5.35;;;;;;;11.09;100.00;99549.81;5115942;27;20052;-75
2022/09/13 00:53:44;;;;;;;11.57;5.68;;;;;;;11.08;100.00;99551.66;5115669;28;20048;-74
2022/09/13 00:56:15;;;;;;;11.32;5.25;;;;;;;11.05;100.00;99549.16;5116218;28;20078;-75
2022/09/13 00:58:47;;;;;;;10.85;5.70;;;;;;;11.09;100.00;99556.09;5115044;28;20047;-75
2022/09/13 01:01:16;;;;;;;10.88;5.93;;;;;;;11.00;100.00;99548.56;5116618;28;20040;-75
2022/09/13 01:03:44;;;;;;;10.85;5.72;;;;;;;10.98;100.00;99548.66;5115678;28;20043;-75
2022/09/13 01:06:14;;;;;;;11.13;5.90;;;;;;;11.00;100.00;99548.56;5115587;28;20527;-75
2022/09/13 01:08:43;;;;;;;13.23;5.88;;;;;;;11.07;100.00;99549.06;5115539;28;20044;-75
2022/09/13 01:11:17;;;;;;;11.68;6.65;;;;;;;11.10;100.00;99546.16;5115692;27;20051;-76
2022/09/13 01:13:47;;;;;;;14.50;6.85;;;;;;;11.13;100.00;99551.34;5116744;28;20051;-76
2022/09/13 01:16:14;;;;;;;13.68;7.30;;;;;;;11.12;100.00;99547.81;5114393;28;20040;-75
2022/09/13 01:18:42;;;;;;;12.68;7.00;;;;;;;11.16;100.00;99545.75;5115146;28;20044;-76
2022/09/13 01:21:33;;;;;;;14.65;7.53;;;;;;;11.14;100.00;99551.28;5115318;28;20048;-75
2022/09/13 01:24:20;;;;;;;14.63;7.53;;;;;;;11.04;100.00;99557.34;5116516;28;20048;-75
2022/09/13 01:27:19;;;;;;;16.98;7.85;;;;;;;10.99;100.00;99558.50;5115113;28;20044;-75
2022/09/13 01:30:08;;;;;;;17.10;7.95;;;;;;;11.01;100.00;99558.41;5114863;28;20511;-75
2022/09/13 01:32:45;;;;;;;13.73;8.10;;;;;;;11.00;100.00;99548.56;5116624;28;20047;-76
2022/09/13 01:35:18;;;;;;;15.52;8.73;;;;;;;11.04;100.00;99552.84;5116922;27;20048;-76
2022/09/13 01:37:53;;;;;;;15.82;8.38;;;;;;;10.99;100.00;99552.22;5115157;28;20046;-75
2022/09/13 01:40:32;;;;;;;14.23;8.45;;;;;;;11.01;100.00;99543.06;5117466;28;20496;-75
2022/09/13 01:43:19;;;;;;;15.98;9.55;;;;;;;10.98;100.00;99543.28;5115059;27;20055;-75
2022/09/13 01:45:54;;;;;;;15.23;8.93;;;;;;;10.92;100.00;99543.66;5116851;27;20043;-75
2022/09/13 01:48:27;;;;;;;15.37;9.20;;;;;;;10.92;100.00;99545.47;5114901;28;20052;-75
2022/09/13 01:51:01;;;;;;;15.50;8.68;;;;;;;10.93;100.00;99548.09;5114950;27;20055;-75
2022/09/13 01:53:36;;;;;;;19.80;9.35;;;;;;;10.88;100.00;99547.50;5115406;27;20048;-76
2022/09/13 01:56:06;;;;;;;15.57;9.75;;;;;;;10.94;100.00;99536.31;5115817;28;20400;-75
2022/09/13 01:58:39;;;;;;;17.17;10.30;;;;;;;10.96;100.00;99539.78;5115987;27;20093;-75
2022/09/13 02:01:14;;;;;;;15.77;9.50;;;;;;;10.94;100.00;99538.13;5114839;27;20054;-75
2022/09/13 02:03:45;;;;;;;17.85;10.18;;;;;;;10.98;100.00;99543.28;5116919;27;20392;-75
2022/09/13 02:06:16;;;;;;;19.40;11.38;;;;;;;10.95;100.00;99538.06;5114612;28;20131;-75
2022/09/13 02:08:46;;;;;;;20.80;11.05;;;;;;;10.95;100.00;99543.47;5115434;27;20452;-75
2022/09/13 02:11:15;;;;;;;17.40;10.57;;;;;;;10.99;100.00;99541.41;5114392;28;20400;-75
2022/09/13 02:13:46;;;;;;;17.25;10.43;;;;;;;10.94;100.00;99539.03;5113706;28;20109;-75
2022/09/13 02:16:20;;;;;;;18.92;10.60;;;;;;;11.00;100.00;99541.34;5114761;28;20043;-75
2022/09/13 02:18:50;;;;;;;17.80;10.80;;;;;;;10.99;100.00;99545.00;5115238;28;20119;-75
2022/09/13 02:21:21;;;;;;;16.73;10.63;;;;;;;11.04;100.00;99547.44;5114132;27;20048;-75
2022/09/13 02:23:52;;;;;;;18.67;10.55;;;;;;;10.96;100.00;99539.78;5114276;28;20070;-75
2022/09/13 02:26:21;;;;;;;18.60;10.60;;;;;;;10.94;100.00;99540.84;5114188;28;20047;-75
2022/09/13 02:28:52;;;;;;;20.15;10.65;;;;;;;10.90;100.00;99537.47;5113751;28;20100;-75
2022/09/13 02:31:25;;;;;;;17.30;10.15;;;;;;;10.84;100.00;99533.31;5114171;28;20043;-75
2022/09/13 02:33:56;;;;;;;16.38;9.95;;;;;;;10.85;100.00;99524.25;5115336;28;20393;-75
2022/09/13 02:36:25;;;;;;;17.88;10.40;;;;;;;10.90;100.00;99526.69;5114642;28;20055;-75
2022/09/13 02:38:56;;;;;;;17.50;10.00;;;;;;;10.96;100.00;99528.97;5113928;28;20126;-75
2022/09/13 02:41:28;;;;;;;18.13;10.18;;;;;;;11.01;100.00;99521.44;5113544;28;20043;-75
2022/09/13 02:44:01;;;;;;;17.25;10.50;;;;;;;10.93;100.00;99521.06;5113368;28;20105;-75
2022/09/13 02:46:44;;;;;;;16.90;10.25;;;;;;;10.93;100.00;99523.78;5113824;28;20040;-75
2022/09/13 02:49:15;;;;;;;17.45;10.15;;;;;;;10.92;100.00;99523.84;5115187;28;20104;-75
2022/09/13 02:51:48;;;;;;;16.08;10.07;;;;;;;10.87;100.00;99525.00;5113623;27;20127;-74
2022/09/13 02:54:23;;;;;;;17.80;9.98;;;;;;;10.89;100.00;99521.34;5113236;27;20097;-75
2022/09/13 02:56:54;;;;;;;15.45;9.82;;;;;;;10.83;100.00;99519.94;5114075;28;20044;-75
2022/09/13 02:59:23;;;;;;;19.10;9.88;;;;;;;10.86;100.00;99522.44;5114780;28;20091;-74
2022/09/13 03:01:55;;;;;;;15.52;9.52;;;;;;;10.87;100.00;99519.63;5113907;28;20505;-76
2022/09/13 03:04:23;;;;;;;16.73;10.45;;;;;;;10.83;100.00;99526.19;5113621;28;20496;-75
2022/09/13 03:06:50;;;;;;;19.83;10.60;;;;;;;10.84;100.00;99524.34;5113763;28;20047;-75
2022/09/13 03:09:18;;;;;;;18.48;10.18;;;;;;;10.90;100.00;99531.19;5113575;28;20043;-75
2022/09/13 03:12:10;;;;;;;18.20;10.23;;;;;;;10.90;100.00;99526.69;5113130;28;20046;-75
2022/09/13 03:14:43;;;;;;;16.33;10.18;;;;;;;10.93;100.00;99522.88;5070869;28;20066;-75
2022/09/13 03:17:17;;;;;;;17.73;10.27;;;;;;;10.89;100.00;99527.63;5072991;28;20049;-75
2022/09/13 03:20:10;;;;;;;16.70;9.68;;;;;;;10.83;100.00;99528.03;5073199;28;20044;-75
2022/09/13 03:23:03;;;;;;;18.80;9.85;;;;;;;10.81;100.00;99524.53;5068942;28;20140;-75
2022/09/13 03:25:41;;;;;;;17.55;10.73;;;;;;;10.79;100.00;99519.22;4991018;28;20524;-75
2022/09/13 03:28:17;;;;;;;18.75;10.25;;;;;;;10.77;100.00;99523.88;4992271;28;20054;-74
2022/09/13 03:30:49;;;;;;;19.40;10.32;;;;;;;10.84;100.00;99529.75;4991410;28;20046;-74
2022/09/13 03:33:24;;;;;;;17.00;10.13;;;;;;;10.85;100.00;99524.25;4991441;28;20077;-75
2022/09/13 03:35:55;;;;;;;19.13;10.55;;;;;;;10.87;100.00;99521.47;4992893;28;20069;-75
2022/09/13 03:38:27;;;;;;;16.25;9.93;;;;;;;10.83;100.00;99528.03;4991966;28;20050;-75
2022/09/13 03:41:01;;;;;;;17.08;10.18;;;;;;;10.80;100.00;99533.59;4989419;28;20045;-75
2022/09/13 03:43:34;;;;;;;18.38;10.07;;;;;;;10.73;100.00;99533.97;4974677;28;20138;-75
2022/09/13 03:46:05;;;;;;;16.70;9.40;;;;;;;10.68;100.00;99536.09;4976685;28;20054;-76
2022/09/13 03:48:36;;;;;;;16.88;9.60;;;;;;;10.71;100.00;99524.25;4977384;28;20051;-75
2022/09/13 03:51:04;;;;;;;16.70;9.50;;;;;;;10.79;100.00;99535.44;4989103;28;20052;-75
2022/09/13 03:53:32;;;;;;;20.95;11.82;;;;;;;10.75;100.00;99530.31;4994826;28;20069;-75
2022/09/13 03:56:00;;;;;;;22.15;13.45;;;;;;;10.71;100.00;99541.31;4994779;28;20174;-75
2022/09/13 03:58:27;;;;;;;17.33;10.57;;;;;;;10.67;100.00;99537.06;4995059;28;20054;-75
2022/09/13 04:00:56;;;;;;;17.63;10.20;;;;;;;10.71;100.00;99532.34;4995134;28;20174;-75
2022/09/13 04:03:23;;;;;;;17.65;10.73;;;;;;;10.74;100.00;99529.47;5048490;28;20061;-75
2022/09/13 04:05:53;;;;;;;16.67;9.73;;;;;;;10.73;100.00;99527.72;5063120;28;20123;-75
2022/09/13 04:08:20;;;;;;;17.77;10.10;;;;;;;10.68;100.00;99521.75;5075810;28;20505;-75
2022/09/13 04:10:50;;;;;;;17.95;10.48;;;;;;;10.67;100.00;99518.16;5076302;28;20044;-75
2022/09/13 04:13:19;;;;;;;16.75;9.27;;;;;;;10.65;100.00;99524.63;5100456;28;20056;-74
2022/09/13 04:15:47;;;;;;;17.58;10.15;;;;;;;10.66;100.00;99520.97;5115454;28;20047;-75
2022/09/13 04:18:15;;;;;;;17.15;10.02;;;;;;;10.68;100.00;99519.03;5113457;27;20055;-75
2022/09/13 04:20:42;;;;;;;17.23;10.25;;;;;;;10.70;100.00;99528.78;5112845;28;20063;-75
2022/09/13 04:23:11;;;;;;;17.77;10.30;;;;;;;10.70;100.00;99517.97;5112708;28;20082;-75
2022/09/13 04:25:39;;;;;;;22.05;10.40;;;;;;;10.67;100.00;99522.72;5113101;28;20043;-74
2022/09/13 04:28:08;;;;;;;17.35;10.23;;;;;;;10.68;100.00;99513.63;5113030;28;20044;-75
2022/09/13 04:30:35;;;;;;;18.45;11.00;;;;;;;10.63;100.00;99524.72;5112902;28;20047;-75
2022/09/13 04:33:03;;;;;;;18.55;11.07;;;;;;;10.65;100.00;99519.22;5112505;28;20047;-75
2022/09/13 04:35:30;;;;;;;17.23;10.60;;;;;;;10.68;100.00;99519.03;5112877;28;20051;-75
2022/09/13 04:37:58;;;;;;;18.33;11.27;;;;;;;10.65;100.00;99508.44;5112441;27;20055;-76
2022/09/13 04:40:28;;;;;;;21.25;12.45;;;;;;;10.61;100.00;99513.13;5112944;28;20047;-74
2022/09/13 04:42:56;;;;;;;16.25;10.60;;;;;;;10.65;100.00;99508.44;5112571;28;20096;-75
2022/09/13 04:45:23;;;;;;;21.90;14.25;;;;;;;10.69;100.00;99513.53;5112333;28;20048;-75
2022/09/13 04:47:52;;;;;;;17.83;11.25;;;;;;;10.69;100.00;99516.22;5112689;27;20044;-75
2022/09/13 04:50:20;;;;;;;18.80;10.93;;;;;;;10.74;100.00;99524.06;5112533;28;20417;-74
2022/09/13 04:52:48;;;;;;;18.65;12.50;;;;;;;10.70;100.00;99517.97;5111959;28;20555;-76
2022/09/13 04:55:16;;;;;;;20.55;12.30;;;;;;;10.68;100.00;99524.44;5112448;28;20458;-75
2022/09/13 04:57:45;;;;;;;18.65;11.80;;;;;;;10.75;100.00;99517.69;5112251;28;20047;-74
2022/09/13 05:00:13;;;;;;;20.92;12.23;;;;;;;10.82;100.00;99518.19;5112328;27;20493;-76
2022/09/13 05:02:40;;;;;;;17.45;11.00;;;;;;;10.85;100.00;99526.94;5112253;28;20496;-76
2022/09/13 05:05:09;;;;;;;19.05;11.48;;;;;;;10.83;100.00;99519.94;5112544;28;20052;-75
2022/09/13 05:07:37;;;;;;;21.38;11.60;;;;;;;10.79;100.00;99526.44;5112141;28;20046;-75
2022/09/13 05:10:05;;;;;;;17.20;10.80;;;;;;;10.80;100.00;99520.09;5115571;28;20047;-74
2022/09/13 05:12:32;;;;;;;19.08;11.30;;;;;;;10.73;100.00;99517.78;5114717;28;20055;-75
2022/09/13 05:15:01;;;;;;;18.75;11.68;;;;;;;10.74;100.00;99515.94;5114627;28;20146;-75
2022/09/13 05:17:30;;;;;;;17.77;12.63;;;;;;;10.75;100.00;99517.69;5115031;28;20044;-76
2022/09/13 05:19:58;;;;;;;19.13;11.05;;;;;;;10.76;100.00;99513.13;5115411;28;20044;-75
2022/09/13 05:22:25;;;;;;;16.98;10.15;;;;;;;10.79;100.00;99515.66;5115081;27;20039;-75
2022/09/13 05:24:53;;;;;;;18.75;10.98;;;;;;;10.89;100.00;99506.03;5115414;28;20040;-75
2022/09/13 05:27:20;;;;;;;24.38;14.75;;;;;;;10.81;100.00;99509.19;5115390;28;20051;-75
2022/09/13 05:29:48;;;;;;;22.73;12.38;;;;;;;10.87;100.00;99503.41;5115291;28;20050;-75
2022/09/13 05:32:17;;;;;;;20.00;11.77;;;;;;;10.84;100.00;99502.75;5115233;28;20112;-76
2022/09/13 05:34:44;;;;;;;21.17;11.35;;;;;;;10.84;100.00;99509.00;5115111;27;20050;-75
2022/09/13 05:37:12;;;;;;;18.58;11.32;;;;;;;10.84;100.00;99514.41;5114834;28;20050;-75
2022/09/13 05:39:39;;;;;;;17.95;11.23;;;;;;;10.83;100.00;99509.97;5106649;28;20092;-74
2022/09/13 05:42:07;;;;;;;18.38;11.27;;;;;;;10.94;100.00;99505.72;5107521;28;20504;-75
2022/09/13 05:44:34;;;;;;;19.33;12.35;;;;;;;10.83;100.00;99504.56;5103223;28;20042;-75
2022/09/13 05:47:02;;;;;;;20.75;12.55;;;;;;;10.88;100.00;99504.28;5094510;28;20040;-75
2022/09/13 05:49:31;;;;;;;18.50;11.05;;;;;;;10.95;100.00;99502.03;5094870;28;20044;-75
2022/09/13 05:51:59;;;;;;;18.17;11.68;;;;;;;10.99;100.00;99507.16;5113654;28;20039;-75
2022/09/13 05:54:26;;;;;;;23.55;12.00;;;;;;;10.98;100.00;99505.44;5102102;28;20101;-75
2022/09/13 05:56:56;;;;;;;21.35;11.43;;;;;;;11.00;100.00;99505.31;5100696;28;20047;-75
2022/09/13 05:59:23;;;;;;;20.73;10.38;;;;;;;10.96;100.00;99510.06;5101032;28;20048;-75
2022/09/13 06:01:51;;;;;;;17.08;10.43;;;;;;;10.85;100.00;99502.63;5103131;28;20048;-75
2022/09/13 06:04:18;;;;;;;16.00;9.75;;;;;;;10.88;100.00;99504.28;5097674;27;20043;-74
2022/09/13 06:06:47;;;;;;;18.00;9.52;;;;;;;10.91;100.00;99504.09;5111154;28;20054;-74
2022/09/13 06:09:15;;;;;;;17.13;9.50;;;;;;;10.94;100.00;99509.31;5093960;28;20440;-74
2022/09/13 06:11:42;;;;;;;15.43;9.23;;;;;;;11.01;100.00;99510.63;5094128;28;20546;-73
2022/09/13 06:14:10;;;;;;;16.40;9.63;;;;;;;10.94;100.00;99508.41;5093756;28;20512;-74
2022/09/13 06:16:38;;;;;;;15.43;9.35;;;;;;;10.96;100.00;99510.06;5092379;28;20707;-74
2022/09/13 06:19:05;;;;;;;14.45;8.43;;;;;;;11.07;100.00;99509.41;5090253;28;20044;-74
2022/09/13 06:21:33;;;;;;;15.27;9.00;;;;;;;11.01;100.00;99517.88;5094117;28;20044;-74
2022/09/13 06:24:04;;;;;;;16.52;9.88;;;;;;;11.09;100.00;99515.56;5110705;28;20052;-74
2022/09/13 06:26:31;;;;;;;15.98;9.50;;;;;;;11.24;100.00;99515.53;5112385;28;20129;-75
2022/09/13 06:28:59;;;;;;;15.32;9.40;;;;;;;11.17;100.00;99512.34;5110773;28;20050;-75
2022/09/13 06:31:28;;;;;;;16.33;9.18;;;;;;;11.20;100.00;99514.84;5110714;28;20051;-75
2022/09/13 06:33:57;;;;;;;17.05;9.20;;;;;;;11.21;100.00;99511.19;5109825;28;20071;-75
2022/09/13 06:36:25;;;;;;;13.68;8.52;;;;;;;11.34;100.00;99513.97;5110592;28;20053;-74
2022/09/13 06:38:53;;;;;;;14.40;8.70;;;;;;;11.21;100.00;99513.88;5110478;28;20401;-77
2022/09/13 06:41:25;;;;;;;15.25;8.98;;;;;;;11.21;100.00;99515.75;5110519;27;20118;-77
2022/09/13 06:43:57;;;;;;;16.55;9.73;;;;;;;11.42;100.00;99510.78;5111775;28;20578;-77
2022/09/13 06:46:25;;;;;;;15.70;9.27;;;;;;;11.38;100.00;99514.66;5110068;28;20069;-77
2022/09/13 06:48:53;;;;;;;15.40;8.98;;;;;;;11.33;100.00;99520.34;5109948;28;20043;-77
2022/09/13 06:51:22;;;;;;;15.57;8.38;;;;;;;11.43;100.00;99513.41;5110233;28;20043;-77
2022/09/13 06:53:51;;;;;;;15.35;8.52;;;;;;;11.29;100.00;99510.69;5110391;28;20492;-77
2022/09/13 06:56:19;;;;;;;14.45;8.40;;;;;;;11.18;100.00;99508.69;5103772;28;20416;-74
2022/09/13 06:58:50;;;;;;;16.08;9.25;;;;;;;11.13;100.00;99518.94;5099848;28;20052;-77
2022/09/13 07:01:21;;;;;;;14.02;8.18;;;;;;;11.30;100.00;99509.72;5106781;28;20131;-73
2022/09/13 07:03:50;;;;;;;14.38;7.90;;;;;;;11.26;100.00;99525.31;5089816;28;20051;-73
2022/09/13 07:06:20;;;;;;;15.32;9.65;;;;;;;11.41;100.00;99520.72;5089812;28;20048;-73
2022/09/13 07:08:48;;;;;;;14.27;8.13;;;;;;;11.37;100.00;99513.78;5089943;28;20048;-73
2022/09/13 07:11:18;;;;;;;13.75;7.68;;;;;;;11.55;100.00;99519.81;5090764;28;20063;-74
2022/09/13 07:13:49;;;;;;;15.38;8.20;;;;;;;11.74;100.00;99522.19;5110198;27;20479;-73
2022/09/13 07:16:18;;;;;;;23.83;8.60;;;;;;;11.74;100.00;99529.44;5114860;28;20493;-72
2022/09/13 07:18:45;;;;;;;16.10;8.23;;;;;;;11.78;100.00;99519.25;5114074;28;20523;-73
2022/09/13 07:21:13;;;;;;;13.18;7.60;;;;;;;11.79;100.00;99521.88;5114316;28;20389;-72
2022/09/13 07:23:41;;;;;;;14.23;7.15;;;;;;;11.67;100.00;99512.72;5114289;28;20556;-71
2022/09/13 07:26:08;;;;;;;12.65;6.97;;;;;;;11.67;100.00;99511.88;5114241;28;20047;-71
2022/09/13 07:28:38;;;;;;;12.95;7.30;;;;;;;11.76;100.00;99516.69;5114136;28;20378;-71
2022/09/13 07:31:09;;;;;;;13.07;7.50;;;;;;;11.96;100.00;99519.88;5113750;27;20547;-72
2022/09/13 07:33:36;;;;;;;13.63;7.28;;;;;;;12.04;100.00;99514.88;5113923;28;20058;-72
2022/09/13 07:36:05;;;;;;;13.02;7.38;;;;;;;12.23;100.00;99516.31;5113978;28;20054;-73
2022/09/13 07:38:34;;;;;;;12.60;7.28;;;;;;;12.41;100.00;99504.19;5114039;28;20126;-72
2022/09/13 07:41:05;;;;;;;12.27;6.78;;;;;;;12.51;100.00;99517.13;5114017;27;20054;-72
2022/09/13 07:43:32;;;;;;;10.80;6.70;;;;;;;12.44;100.00;99512.13;5104217;28;20747;-72
2022/09/13 07:46:01;;;;;;;11.13;6.25;;;;;;;12.45;100.00;99516.56;5107912;28;20057;-72
2022/09/13 07:48:31;;;;;;;12.63;7.40;;;;;;;12.54;100.00;99517.75;5105957;28;20044;-71
2022/09/13 07:51:00;;;;;;;12.38;6.35;;;;;;;12.66;100.00;99512.47;5105707;28;20050;-73
2022/09/13 07:53:27;;;;;;;10.73;5.70;;;;;;;12.67;100.00;99511.50;5098209;28;20067;-72
2022/09/13 07:55:55;;;;;;;10.43;5.68;;;;;;;12.84;100.00;99512.97;5096397;28;20048;-72
2022/09/13 07:58:22;;;;;;;8.43;4.38;;;;;;;12.80;100.00;99511.47;5103878;28;20044;-72
2022/09/13 08:00:50;;;;;;;10.82;4.90;;;;;;;12.84;100.00;99515.69;5108663;28;20065;-71
2022/09/13 08:03:17;;;;;;;9.95;4.93;;;;;;;13.09;100.00;99505.81;5117245;27;20066;-73
2022/09/13 08:05:46;;;;;;;8.48;4.10;;;;;;;13.18;100.00;99505.13;5131310;27;20043;-73
2022/09/13 08:08:14;;;;;;;8.07;3.67;;;;;;;13.27;100.00;99501.78;5092758;28;20106;-73
2022/09/13 08:10:41;;;;;;;10.02;3.90;;;;;;;13.38;100.00;99500.97;5103155;27;20050;-73
2022/09/13 08:13:09;;;;;;;8.55;4.25;;;;;;;13.36;100.00;99491.22;5116246;27;20084;-73
2022/09/13 08:15:36;;;;;;;8.40;4.05;;;;;;;13.15;100.00;99500.81;5112114;28;20048;-73
2022/09/13 08:18:05;;;;;;;11.85;3.90;;;;;;;13.10;100.00;99504.84;5105144;28;20515;-73
2022/09/13 08:20:37;;;;;;;6.15;2.90;;;;;;;13.21;100.00;99504.06;5125860;27;20559;-74
2022/09/13 08:23:07;;;;;;;8.63;3.45;;;;;;;13.22;100.00;99506.66;5104370;27;20058;-73
2022/09/13 08:25:34;;;;;;;7.70;3.50;;;;;;;13.29;100.00;99507.97;5102992;28;20068;-73
2022/09/13 08:28:02;;;;;;;20.17;13.38;;;;;;;13.56;100.00;99508.78;5104118;28;20100;-73
2022/09/13 08:30:32;;;;;;;9.18;4.20;;;;;;;13.39;100.00;99501.84;5112752;28;20100;-76
2022/09/13 08:33:01;;;;;;;11.88;4.63;;;;;;;13.24;100.00;99504.69;5100976;28;20447;-79
2022/09/13 08:35:29;;;;;;;13.52;5.35;;;;;;;13.23;100.00;99502.94;5092126;28;20528;-77
2022/09/13 08:37:56;;;;;;;12.15;4.72;;;;;;;13.55;100.00;99505.19;5105758;28;20044;-76
2022/09/13 08:40:27;;;;;;;6.25;3.20;;;;;;;13.56;100.00;99496.06;5092826;28;20044;-79
2022/09/13 08:42:59;;;;;;;7.43;3.53;;;;;;;13.57;99.71;99499.66;5110766;28;20067;-79
2022/09/13 08:45:27;;;;;;;10.05;4.40;;;;;;;13.70;99.80;99496.91;5104468;28;20079;-78
2022/09/13 08:47:59;;;;;;;7.15;3.50;;;;;;;13.73;98.56;99502.09;5092357;28;20288;-77
2022/09/13 08:50:29;;;;;;;9.10;3.85;;;;;;;13.70;99.36;99505.03;5092351;28;20121;-77
2022/09/13 08:53:08;;;;;;;6.85;3.20;;;;;;;13.68;97.67;99497.00;5092427;28;20044;-78
2022/09/13 08:55:48;;;;;;;6.22;3.10;;;;;;;13.67;96.70;99497.13;5092307;28;20408;-77
2022/09/13 08:58:34;;;;;;;7.55;3.55;;;;;;;13.90;97.29;99504.38;5091798;28;20435;-78
2022/09/13 09:01:06;;;;;;;5.95;3.25;;;;;;;14.13;97.61;99490.91;5091672;28;20044;-78
2022/09/13 09:03:42;;;;;;;10.10;4.50;;;;;;;14.14;97.79;99480.91;5092616;28;20044;-77
2022/09/13 09:06:13;;;;;;;4.93;2.55;;;;;;;14.07;96.28;99488.66;5092476;28;20052;-79
2022/09/13 09:08:45;;;;;;;4.40;2.10;;;;;;;13.84;93.08;99488.56;5093069;28;20040;-78
2022/09/13 09:11:21;;;;;;;4.22;2.30;;;;;;;13.89;91.44;99491.81;5104699;28;20507;-77
2022/09/13 09:13:52;;;;;;;10.18;4.80;;;;;;;14.09;92.48;99489.44;5111565;28;20059;-74
2022/09/13 09:16:32;;;;;;;8.10;3.85;;;;;;;14.24;94.02;99486.50;5112124;28;20055;-74
2022/09/13 09:19:05;;;;;;;7.90;4.05;;;;;;;14.27;96.19;99480.84;5112310;27;20047;-73
2022/09/13 09:21:33;;;;;;;9.27;4.50;;;;;;;14.13;97.88;99477.34;5112195;28;20042;-72
2022/09/13 09:24:01;;;;;;;9.75;4.70;;;;;;;14.25;98.14;99490.94;5093220;28;20044;-73
2022/09/13 09:26:31;;;;;;;8.48;4.30;;;;;;;14.31;98.33;99491.34;5108325;28;20039;-78
2022/09/13 09:29:01;;;;;;;8.18;4.40;;;;;;;14.32;97.77;99484.94;5104982;28;20050;-77
2022/09/13 09:31:34;;;;;;;13.18;4.70;;;;;;;14.35;98.46;99486.53;5115147;28;20044;-78
2022/09/13 09:34:11;;;;;;;8.48;4.40;;;;;;;14.57;97.60;99482.13;5116309;28;20043;-79
2022/09/13 09:36:42;;;;;;;7.93;3.90;;;;;;;14.52;96.97;99478.94;5116389;27;20113;-79
2022/09/13 09:39:12;;;;;;;6.90;3.60;;;;;;;14.42;96.35;99478.78;5115735;28;20480;-76
2022/09/13 09:41:42;;;;;;;7.72;3.70;;;;;;;14.64;96.11;99472.50;5111923;28;20071;-76
2022/09/13 09:44:17;;;;;;;7.18;3.33;;;;;;;14.89;95.60;99471.44;5108082;28;20048;-77
2022/09/13 09:46:48;;;;;;;8.20;3.35;;;;;;;14.87;94.82;99467.97;5112738;28;20078;-75
2022/09/13 09:52:07;;;;;;;6.28;3.03;;;;;;;14.36;93.63;99458.38;5112826;28;20054;-75
2022/09/13 09:54:36;;;;;;;9.85;3.70;;;;;;;14.33;94.23;99467.66;5113358;27;20073;-74
2022/09/13 09:57:07;;;;;;;8.48;3.65;;;;;;;14.32;94.97;99462.31;5112884;28;20124;-75
2022/09/13 09:59:35;;;;;;;6.38;3.30;;;;;;;14.11;96.13;99454.88;5113530;28;20046;-72
2022/09/13 10:02:14;;;;;;;7.55;3.67;;;;;;;13.99;96.88;99455.78;5112004;28;20043;-77
2022/09/13 10:04:42;;;;;;;6.82;3.08;;;;;;;14.14;97.06;99454.63;5107891;28;20093;-75
2022/09/13 10:07:25;;;;;;;8.40;2.90;;;;;;;14.40;96.27;99449.00;5113344;28;20069;-75
2022/09/13 10:09:58;;;;;;;5.72;2.88;;;;;;;14.59;93.89;99453.00;5113797;28;20043;-73
2022/09/13 10:12:32;;;;;;;5.78;2.70;;;;;;;14.72;90.46;99448.31;5110802;28;20046;-74
2022/09/13 10:15:16;;;;;;;5.15;2.55;;;;;;;14.96;89.76;99449.19;5110693;28;20051;-73
2022/09/13 10:18:00;;;;;;;4.97;2.50;;;;;;;14.88;88.27;99442.53;5110408;28;20048;-76
2022/09/13 10:20:28;;;;;;;4.97;2.60;;;;;;;15.16;87.18;99443.00;5113387;28;20050;-78
2022/09/13 10:23:11;;;;;;;5.07;2.55;;;;;;;15.29;86.77;99433.81;5112021;28;20042;-77
2022/09/13 10:25:40;;;;;;;22.27;2.90;;;;;;;15.39;87.48;99439.38;5114275;27;20149;-78
2022/09/13 10:28:13;;;;;;;11.50;2.50;;;;;;;15.69;87.40;99440.50;5114219;27;20397;-76
2022/09/13 10:30:42;;;;;;;40.42;4.18;;;;;;;15.84;87.51;99435.63;5115396;27;20446;-77
2022/09/13 10:33:22;;;;;;;29.48;2.85;;;;;;;15.84;85.18;99424.72;5113973;27;20043;-78
2022/09/13 10:35:50;;;;;;;43.03;4.45;;;;;;;16.03;87.13;99434.94;5115650;28;20055;-78
2022/09/13 10:38:24;;;;;;;26.92;3.25;;;;;;;15.86;85.72;99431.78;5113992;27;20039;-78
2022/09/13 10:40:52;;;;;;;10.10;2.50;;;;;;;15.62;82.53;99441.03;5114091;27;20551;-77
2022/09/13 10:43:22;;;;;;;6.20;2.28;;;;;;;15.58;81.53;99434.13;5113576;28;20488;-78
2022/09/13 10:45:50;;;;;;;4.93;2.20;;;;;;;15.72;82.51;99440.28;5113795;28;20044;-78
2022/09/13 10:48:19;;;;;;;4.72;2.20;;;;;;;15.71;81.73;99427.66;5113931;27;20036;-78
2022/09/13 10:51:02;;;;;;;3.75;2.15;;;;;;;15.58;78.92;99427.81;5113394;28;20090;-78
2022/09/13 10:53:34;;;;;;;3.35;2.10;;;;;;;15.79;80.85;99422.41;5108674;28;20567;-78
2022/09/13 10:56:02;;;;;;;2.85;2.00;;;;;;;15.87;80.57;99421.75;5102586;28;20051;-78
2022/09/13 10:58:31;;;;;;;4.95;2.10;;;;;;;15.96;80.18;99425.59;5096984;27;20481;-76
2022/09/13 11:01:17;;;;;;;3.38;2.10;;;;;;;16.09;79.89;99428.97;5093230;28;20048;-78
2022/09/13 11:04:15;;;;;;;3.90;2.28;;;;;;;16.00;77.34;99417.03;5093663;28;20044;-75
2022/09/13 11:06:49;;;;;;;4.65;2.58;;;;;;;16.25;80.31;99422.22;5093187;28;20066;-78
2022/09/13 11:09:19;;;;;;;7.43;3.13;;;;;;;16.34;80.06;99415.94;5094286;28;20044;-77
2022/09/13 11:11:55;;;;;;;7.05;3.15;;;;;;;16.27;79.45;99412.03;5100411;28;20040;-75
2022/09/13 11:14:35;;;;;;;5.18;2.50;;;;;;;16.03;76.68;99407.72;5074974;28;20048;-79
2022/09/13 11:17:07;;;;;;;4.85;2.13;;;;;;;16.18;77.37;99411.84;5073123;28;20067;-78
2022/09/13 11:19:51;;;;;;;5.90;2.45;;;;;;;16.09;76.49;99404.44;5069339;28;20139;-75
2022/09/13 11:22:28;;;;;;;4.95;2.55;;;;;;;15.93;77.16;99403.06;5073883;28;20045;-78
2022/09/13 11:25:04;;;;;;;6.18;2.72;;;;;;;16.12;77.27;99390.59;5054510;28;20041;-79
2022/09/13 11:27:39;;;;;;;5.40;2.50;;;;;;;16.16;74.90;99383.88;5058062;28;20032;-79
2022/09/13 11:30:14;;;;;;;7.63;2.60;;;;;;;16.18;77.53;99390.06;5059850;28;20048;-80
2022/09/13 11:32:57;;;;;;;4.67;2.43;;;;;;;16.22;78.48;99388.78;5068220;28;20040;-79
2022/09/13 11:35:41;;;;;;;4.65;2.47;;;;;;;16.26;77.47;99383.06;5065283;28;20048;-77
2022/09/13 11:38:27;;;;;;;7.82;2.80;;;;;;;16.27;77.69;99388.38;5049241;28;20118;-79
2022/09/13 11:40:59;;;;;;;7.15;2.58;;;;;;;16.30;75.46;99384.53;5065405;28;20085;-78